ADDS METAR Data INFO
IDs: Format: Raw Decoded Include TAF

Data at: 0249 UTC 21 Jan 2018

KDNS 210235Z AUTO 00000KT 10SM CLR 00/M01 A2989 RMK AO2
KDNS 210215Z AUTO 00000KT 10SM CLR 01/M01 A2989 RMK AO2
KDNS 210155Z AUTO 11004KT 10SM CLR 00/M01 A2988 RMK AO2
KDNS 210135Z AUTO 00000KT 10SM FEW026 01/M01 A2988 RMK AO2
KDNS 210115Z AUTO 10005KT 10SM FEW023 02/M00 A2988 RMK AO2
KDNS 210055Z AUTO 10005KT 10SM SCT022 02/M00 A2987 RMK AO2
KDNS 210035Z AUTO 10004KT 10SM SCT022 03/M00 A2988 RMK AO2
KDNS 210015Z AUTO 10004KT 10SM CLR 04/00 A2987 RMK AO2
KDNS 202355Z AUTO 11003KT 10SM CLR 05/01 A2987 RMK AO2
KDNS 202335Z AUTO 00000KT 10SM CLR 05/01 A2987 RMK AO2
KDNS 202315Z AUTO 14003KT 10SM CLR 07/01 A2986 RMK AO2
KDNS 202255Z AUTO 11004KT 10SM CLR 08/01 A2986 RMK AO2
KDNS 202235Z AUTO 06005KT 10SM CLR 09/01 A2985 RMK AO2
KDNS 202215Z AUTO 09005KT 10SM CLR 10/02 A2985 RMK AO2
KDNS 202155Z AUTO 10007KT 10SM CLR 10/02 A2985 RMK AO2
KDNS 202135Z AUTO 09006KT 10SM CLR 10/02 A2984 RMK AO2
KDNS 202115Z AUTO 09007KT 10SM CLR 10/01 A2984 RMK AO2
KDNS 202055Z AUTO 11006KT 10SM CLR 10/01 A2984 RMK AO2
KDNS 202035Z AUTO 09005KT 10SM CLR 10/01 A2983 RMK AO2
KDNS 202015Z AUTO 12003KT 10SM CLR 10/01 A2983 RMK AO2
KDNS 201955Z AUTO 15006KT 10SM CLR 10/01 A2984 RMK AO2
KDNS 201935Z AUTO 07005KT 10SM CLR 10/01 A2984 RMK AO2
KDNS 201915Z AUTO 13005KT 10SM CLR 09/01 A2984 RMK AO2
KDNS 201855Z AUTO 12004KT 10SM CLR 09/02 A2984 RMK AO2
KDNS 201835Z AUTO VRB04KT 10SM CLR 09/01 A2985 RMK AO2
KDNS 201815Z AUTO 00000KT 10SM CLR 08/01 A2987 RMK AO2
KDNS 201755Z AUTO 13004KT 10SM CLR 07/01 A2987 RMK AO2
KDNS 201735Z AUTO 14004KT 10SM CLR 07/01 A2988 RMK AO2
KDNS 201715Z AUTO 16003KT 10SM CLR 06/01 A2989 RMK AO2
KDNS 201655Z AUTO 00000KT 10SM CLR 06/01 A2989 RMK AO2
KDNS 201635Z AUTO 24003KT 10SM CLR 05/00 A2989 RMK AO2
KDNS 201615Z AUTO 00000KT 10SM CLR 03/M00 A2989 RMK AO2
KDNS 201555Z AUTO 00000KT 10SM CLR 01/M01 A2988 RMK AO2
KDNS 201535Z AUTO 00000KT 9SM CLR M00/M02 A2988 RMK AO2
KDNS 201515Z AUTO 00000KT 10SM CLR M01/M02 A2988 RMK AO2
KDNS 201455Z AUTO 00000KT 10SM CLR M02/M03 A2988 RMK AO2
KDNS 201435Z AUTO 04003KT 10SM CLR M03/M03 A2986 RMK AO2
KDNS 201415Z AUTO 00000KT 10SM CLR M04/M04 A2986 RMK AO2
KDNS 201355Z AUTO 00000KT 10SM CLR M05/M05 A2986 RMK AO2
KDNS 201335Z AUTO 00000KT 10SM CLR M05/M05 A2985 RMK AO2
KDNS 201315Z AUTO 00000KT 10SM CLR M05/M05 A2984 RMK AO2
KDNS 201255Z AUTO 00000KT 10SM CLR M04/M04 A2984 RMK AO2
KDNS 201235Z AUTO 00000KT 10SM CLR M04/M04 A2984 RMK AO2
KDNS 201215Z AUTO 00000KT 10SM CLR M04/M04 A2983 RMK AO2
KDNS 201155Z AUTO 00000KT 10SM CLR M04/M04 A2983 RMK AO2
KDNS 201135Z AUTO 00000KT 8SM CLR M03/M04 A2983 RMK AO2
KDNS 201115Z AUTO 00000KT 10SM CLR M03/M04 A2982 RMK AO2
KDNS 201055Z AUTO 00000KT 10SM CLR M03/M03 A2982 RMK AO2
KDNS 201035Z AUTO 00000KT 7SM CLR M04/M04 A2982 RMK AO2
KDNS 201015Z AUTO 03003KT 10SM CLR M04/M04 A2981 RMK AO2
KDNS 200955Z AUTO 00000KT 10SM CLR M04/M04 A2981 RMK AO2
KDNS 200935Z AUTO 00000KT 10SM CLR M03/M04 A2980 RMK AO2
KDNS 200915Z AUTO 00000KT 10SM CLR M03/M03 A2980 RMK AO2
KDNS 200855Z AUTO 00000KT 10SM CLR M03/M03 A2980 RMK AO2
KDNS 200835Z AUTO 00000KT 10SM CLR M02/M03 A2980 RMK AO2
KDNS 200815Z AUTO 12003KT 10SM CLR M02/M03 A2979 RMK AO2
KDNS 200755Z AUTO 00000KT 10SM CLR M02/M03 A2979 RMK AO2
KDNS 200735Z AUTO 00000KT 10SM CLR M01/M03 A2977 RMK AO2
KDNS 200715Z AUTO 10003KT 10SM CLR M01/M03 A2977 RMK AO2
KDNS 200655Z AUTO 12003KT 10SM CLR M00/M02 A2977 RMK AO2
KDNS 200635Z AUTO 00000KT 10SM CLR M00/M03 A2977 RMK AO2
KDNS 200615Z AUTO 13003KT 10SM CLR 00/M02 A2978 RMK AO2
KDNS 200555Z AUTO 00000KT 10SM CLR 00/M02 A2978 RMK AO2
KDNS 200535Z AUTO 00000KT 10SM CLR 00/M02 A2978 RMK AO2
KDNS 200515Z AUTO 27004KT 10SM CLR 01/M02 A2977 RMK AO2
KDNS 200455Z AUTO 23003KT 10SM CLR 01/M02 A2976 RMK AO2
KDNS 200435Z AUTO 00000KT 10SM CLR 01/M02 A2976 RMK AO2
KDNS 200415Z AUTO 00000KT 10SM CLR 02/M02 A2976 RMK AO2
KDNS 200355Z AUTO 24005KT 10SM CLR 02/M02 A2975 RMK AO2
KDNS 200335Z AUTO 00000KT 10SM CLR 02/M02 A2975 RMK AO2
KDNS 200315Z AUTO 22004KT 10SM CLR 03/M02 A2974 RMK AO2
KDNS 200255Z AUTO 22005KT 10SM CLR 03/M02 A2973 RMK AO2
KDNS 200235Z AUTO VRB05KT 10SM CLR 03/M02 A2972 RMK AO2
KDNS 200215Z AUTO 22008KT 10SM CLR 03/M02 A2972 RMK AO2
KDNS 200155Z AUTO 22006KT 10SM CLR 03/M02 A2971 RMK AO2
KDNS 200135Z AUTO 22007KT 10SM CLR 03/M02 A2971 RMK AO2
KDNS 200115Z AUTO 21007KT 10SM CLR 04/M02 A2971 RMK AO2
KDNS 200055Z AUTO 21007KT 10SM CLR 03/M02 A2970 RMK AO2
KDNS 200035Z AUTO 21006KT 10SM CLR 04/M02 A2970 RMK AO2
KDNS 200015Z AUTO 20005G10KT 10SM CLR 04/M01 A2969 RMK AO2
KDNS 192355Z AUTO 20007KT 10SM CLR 04/M01 A2968 RMK AO2
KDNS 192335Z AUTO 20006KT 10SM CLR 04/M01 A2967 RMK AO2
KDNS 192315Z AUTO 10SM CLR 04/M01 A2966 RMK AO2
KDNS 192255Z AUTO 10SM CLR 05/M01 A2965 RMK AO2
KDNS 192235Z AUTO 19007G13KT 10SM CLR 05/M01 A2965 RMK AO2
KDNS 192215Z AUTO 20008KT 10SM CLR 06/M01 A2965 RMK AO2
KDNS 192155Z AUTO 21008KT 10SM CLR 07/M01 A2965 RMK AO2
KDNS 192135Z AUTO 20013G19KT 10SM CLR 06/M01 A2962 RMK AO2
KDNS 192115Z AUTO 19011G20KT 10SM CLR 07/M01 A2961 RMK AO2
KDNS 192055Z AUTO 19013G18KT 10SM CLR 07/M01 A2962 RMK AO2
KDNS 192035Z AUTO 20010KT 10SM CLR 07/M01 A2963 RMK AO2
KDNS 192015Z AUTO 21009KT 10SM CLR 06/M01 A2964 RMK AO2
KDNS 191955Z AUTO 20010G15KT 10SM CLR 06/M01 A2963 RMK AO2
KDNS 191935Z AUTO 20012G19KT 10SM CLR 06/M02 A2963 RMK AO2
KDNS 191915Z AUTO 20012KT 10SM CLR 06/M02 A2963 RMK AO2
KDNS 191855Z AUTO 20013G18KT 10SM CLR 06/M02 A2964 RMK AO2
KDNS 191835Z AUTO 21007G17KT 10SM CLR 06/M02 A2966 RMK AO2
KDNS 191815Z AUTO 20010KT 10SM CLR 05/M02 A2967 RMK AO2
KDNS 191755Z AUTO 20011KT 10SM CLR 04/M02 A2968 RMK AO2
KDNS 191735Z AUTO 20010G19KT 10SM CLR 04/M03 A2970 RMK AO2
KDNS 191715Z AUTO 21011KT 10SM CLR 04/M03 A2971 RMK AO2
KDNS 191655Z AUTO 21013G19KT 10SM CLR 03/M03 A2971 RMK AO2
KDNS 191635Z AUTO 20011G17KT 10SM CLR 03/M03 A2971 RMK AO2
KDNS 191615Z AUTO 21014KT 10SM CLR 03/M03 A2971 RMK AO2
KDNS 191555Z AUTO 21013KT 10SM CLR 02/M03 A2972 RMK AO2
KDNS 191535Z AUTO 21009G16KT 10SM CLR 02/M04 A2972 RMK AO2
KDNS 191515Z AUTO 19011G19KT 10SM CLR 01/M04 A2971 RMK AO2
KDNS 191455Z AUTO 21010G17KT 10SM CLR 01/M04 A2971 RMK AO2